Fort Bridger, WY (82933)

4:53 AM MDT on September 19, 2014 (GMT -0600)
Lyman, Wyoming | Change Station
CLOSE
Current Station
Personal Weather Station
Location: Lyman, WY
Elevation: 6716 ft
Nearby Weather Stations

Elev 6716 ft 41.33 °N, 110.29 °W | Updated 43 seconds ago

Rain
Rain
53.1 °F
Feels Like 53.1 °F
N
3.1
Wind Variable Wind from South
Gusts 6.0 mph

Today
High -- | Low -- °F
--% Chance of Precip.
Yesterday
High -- | Low -- °F
Precip. -- in
7:05 AM 7:23 PM
Waning Crescent, 20% visible
Pressure 30.17 in
Visibility -9999.0 miles
Clouds
Dew Point 50 °F
Humidity 91%
Rainfall 0.09 in
Snow Depth 0 in , 0 in
UV Not available.
Pollen 5.30 out of 12
Air Quality Not available.
Flu Activity Not available.
METAR KFBR 191035Z AUTO 15009KT VCTS 13/12 A3017 RMK AO2 LTG DSNT E W AND NW T01250115

More Conditions Fewer Conditions

Pressure 30.17 in
Visibility -9999.0 miles
Clouds
Dew Point 50 °F
Humidity 91%
Rainfall 0.09 in
Snow Depth 0 in , 0 in
UV Not available.
Pollen 5.30 out of 12
Air Quality Not available.
Flu Activity Not available.
METAR KFBR 191035Z AUTO 15009KT VCTS 13/12 A3017 RMK AO2 LTG DSNT E W AND NW T01250115

More Conditions Fewer Conditions

10-Day Weather Forecast

Almanac

Astronomy

Sep. 19, 2014 Rise Set
Actual Time 7:05 AM MDT 7:23 PM MDT
Civil Twilight 6:38 AM MDT 7:51 PM MDT
Nautical Twilight 6:05 AM MDT 8:23 PM MDT
Astronomical Twilight 5:32 AM MDT 8:56 PM MDT
Moon 2:52 AM MDT 4:56 PM MDT
Length of Visible Light 13h 12m
Length of Day
12h 17m
Tomorrow will be 2m 44s shorter.
Waning Crescent, 20% of the Moon is Illuminated
Today
Waning Crescent
Sep 24
New
Oct 1
First Quarter
Oct 8
Full
Oct 15
Last Quarter

Today's Extremes

State Highs State Lows

Community

WunderPhotos

Upload Photos

1,754,591 photos uploaded!

Nearby

Snow Depth

Station Depth Elevation
Phillips Bench 0 in 8200 ft
Salt River Summit 0 in 7600 ft
Kendall R.S. 1 in 7740 ft
South Brush Creek 0 in 8440 ft
East Rim Divide 0 in 7930 ft

Earthquake Activity

City Distance Mag. Time & Date
No recent earthquake activity has been reported nearby.
Minimum magnitude displayed is 2.5.

Coastal Water Temperatures

Place Temperature
No Stations Reporting

Nearby Weather Stations